sensor_id;sensor_type;location;lat;lon;timestamp;P1;durP1;ratioP1;P2;durP2;ratioP2
26634;SDS011;14490;54.208;37.686;2022-08-18T00:01:22;10.55;;;4.55;;
26634;SDS011;14490;54.208;37.686;2022-08-18T00:03:51;8.48;;;4.22;;
26634;SDS011;14490;54.208;37.686;2022-08-18T00:06:19;13.52;;;4.25;;
26634;SDS011;14490;54.208;37.686;2022-08-18T00:08:47;7.30;;;4.15;;
26634;SDS011;14490;54.208;37.686;2022-08-18T00:11:14;12.80;;;4.68;;
26634;SDS011;14490;54.208;37.686;2022-08-18T00:13:42;11.10;;;4.00;;
26634;SDS011;14490;54.208;37.686;2022-08-18T00:16:11;13.82;;;4.82;;
26634;SDS011;14490;54.208;37.686;2022-08-18T00:18:39;10.02;;;3.67;;
26634;SDS011;14490;54.208;37.686;2022-08-18T00:21:07;8.23;;;3.60;;
26634;SDS011;14490;54.208;37.686;2022-08-18T00:23:34;12.02;;;4.32;;
26634;SDS011;14490;54.208;37.686;2022-08-18T00:26:03;12.23;;;5.15;;
26634;SDS011;14490;54.208;37.686;2022-08-18T00:28:30;14.57;;;4.47;;
26634;SDS011;14490;54.208;37.686;2022-08-18T00:30:58;11.70;;;4.18;;
26634;SDS011;14490;54.208;37.686;2022-08-18T00:33:27;14.98;;;4.30;;
26634;SDS011;14490;54.208;37.686;2022-08-18T00:35:55;9.95;;;4.03;;
26634;SDS011;14490;54.208;37.686;2022-08-18T00:38:23;11.38;;;3.72;;
26634;SDS011;14490;54.208;37.686;2022-08-18T00:40:51;9.48;;;4.25;;
26634;SDS011;14490;54.208;37.686;2022-08-18T00:43:20;5.53;;;3.75;;
26634;SDS011;14490;54.208;37.686;2022-08-18T00:45:56;5.22;;;3.60;;
26634;SDS011;14490;54.208;37.686;2022-08-18T00:48:25;12.98;;;4.28;;
26634;SDS011;14490;54.208;37.686;2022-08-18T00:50:54;8.90;;;4.22;;
26634;SDS011;14490;54.208;37.686;2022-08-18T00:53:26;9.35;;;3.60;;
26634;SDS011;14490;54.208;37.686;2022-08-18T00:56:05;14.25;;;3.72;;
26634;SDS011;14490;54.208;37.686;2022-08-18T00:58:41;11.55;;;3.97;;
26634;SDS011;14490;54.208;37.686;2022-08-18T01:01:14;14.77;;;4.70;;
26634;SDS011;14490;54.208;37.686;2022-08-18T01:03:45;12.40;;;4.18;;
26634;SDS011;14490;54.208;37.686;2022-08-18T01:06:22;8.93;;;3.97;;
26634;SDS011;14490;54.208;37.686;2022-08-18T01:08:56;7.68;;;4.15;;
26634;SDS011;14490;54.208;37.686;2022-08-18T01:11:25;13.13;;;3.72;;
26634;SDS011;14490;54.208;37.686;2022-08-18T01:13:54;13.00;;;3.75;;
26634;SDS011;14490;54.208;37.686;2022-08-18T01:16:23;12.27;;;4.05;;
26634;SDS011;14490;54.208;37.686;2022-08-18T01:19:09;14.70;;;3.50;;
26634;SDS011;14490;54.208;37.686;2022-08-18T01:21:56;10.55;;;3.85;;
26634;SDS011;14490;54.208;37.686;2022-08-18T01:24:33;19.13;;;5.15;;
26634;SDS011;14490;54.208;37.686;2022-08-18T01:27:20;10.85;;;3.83;;
26634;SDS011;14490;54.208;37.686;2022-08-18T01:29:48;12.75;;;4.10;;
26634;SDS011;14490;54.208;37.686;2022-08-18T01:32:17;14.23;;;4.70;;
26634;SDS011;14490;54.208;37.686;2022-08-18T01:34:48;17.15;;;4.32;;
26634;SDS011;14490;54.208;37.686;2022-08-18T01:37:18;18.95;;;4.45;;
26634;SDS011;14490;54.208;37.686;2022-08-18T01:39:49;14.32;;;4.47;;
26634;SDS011;14490;54.208;37.686;2022-08-18T01:42:17;12.20;;;4.65;;
26634;SDS011;14490;54.208;37.686;2022-08-18T01:44:46;9.77;;;4.05;;
26634;SDS011;14490;54.208;37.686;2022-08-18T01:47:17;15.55;;;4.70;;
26634;SDS011;14490;54.208;37.686;2022-08-18T01:49:45;10.18;;;4.65;;
26634;SDS011;14490;54.208;37.686;2022-08-18T01:52:13;12.27;;;4.05;;
26634;SDS011;14490;54.208;37.686;2022-08-18T01:54:45;14.38;;;4.57;;
26634;SDS011;14490;54.208;37.686;2022-08-18T01:57:16;12.80;;;4.45;;
26634;SDS011;14490;54.208;37.686;2022-08-18T01:59:46;20.10;;;4.65;;
26634;SDS011;14490;54.208;37.686;2022-08-18T02:02:14;10.75;;;4.15;;
26634;SDS011;14490;54.208;37.686;2022-08-18T02:04:51;18.63;;;4.70;;
26634;SDS011;14490;54.208;37.686;2022-08-18T02:07:21;16.92;;;4.57;;
26634;SDS011;14490;54.208;37.686;2022-08-18T02:09:49;16.55;;;4.30;;
26634;SDS011;14490;54.208;37.686;2022-08-18T02:12:18;22.45;;;4.20;;
26634;SDS011;14490;54.208;37.686;2022-08-18T02:14:46;13.73;;;4.60;;
26634;SDS011;14490;54.208;37.686;2022-08-18T02:17:14;8.55;;;4.55;;
26634;SDS011;14490;54.208;37.686;2022-08-18T02:19:43;9.88;;;4.05;;
26634;SDS011;14490;54.208;37.686;2022-08-18T02:22:13;19.08;;;4.60;;
26634;SDS011;14490;54.208;37.686;2022-08-18T02:24:43;10.48;;;3.78;;
26634;SDS011;14490;54.208;37.686;2022-08-18T02:27:12;17.98;;;4.90;;
26634;SDS011;14490;54.208;37.686;2022-08-18T02:29:43;14.75;;;3.83;;
26634;SDS011;14490;54.208;37.686;2022-08-18T02:32:11;18.20;;;4.15;;
26634;SDS011;14490;54.208;37.686;2022-08-18T02:34:39;7.95;;;3.10;;
26634;SDS011;14490;54.208;37.686;2022-08-18T02:37:07;13.77;;;4.15;;
26634;SDS011;14490;54.208;37.686;2022-08-18T02:39:35;18.83;;;4.00;;
26634;SDS011;14490;54.208;37.686;2022-08-18T02:42:04;9.20;;;3.60;;
26634;SDS011;14490;54.208;37.686;2022-08-18T02:44:33;12.13;;;3.35;;
26634;SDS011;14490;54.208;37.686;2022-08-18T02:47:02;10.05;;;3.85;;
26634;SDS011;14490;54.208;37.686;2022-08-18T02:49:30;14.85;;;3.28;;
26634;SDS011;14490;54.208;37.686;2022-08-18T02:51:58;12.80;;;3.95;;
26634;SDS011;14490;54.208;37.686;2022-08-18T02:54:25;12.68;;;3.47;;
26634;SDS011;14490;54.208;37.686;2022-08-18T02:56:53;12.25;;;3.70;;
26634;SDS011;14490;54.208;37.686;2022-08-18T02:59:22;13.45;;;3.78;;
26634;SDS011;14490;54.208;37.686;2022-08-18T03:01:52;7.10;;;3.08;;
26634;SDS011;14490;54.208;37.686;2022-08-18T03:04:25;14.45;;;3.33;;
26634;SDS011;14490;54.208;37.686;2022-08-18T03:06:56;16.20;;;3.92;;
26634;SDS011;14490;54.208;37.686;2022-08-18T03:09:26;13.73;;;3.30;;
26634;SDS011;14490;54.208;37.686;2022-08-18T03:12:04;16.13;;;3.70;;
26634;SDS011;14490;54.208;37.686;2022-08-18T03:14:33;13.00;;;3.58;;
26634;SDS011;14490;54.208;37.686;2022-08-18T03:17:02;14.10;;;3.28;;
26634;SDS011;14490;54.208;37.686;2022-08-18T03:19:34;16.00;;;3.88;;
26634;SDS011;14490;54.208;37.686;2022-08-18T03:22:02;15.15;;;3.53;;
26634;SDS011;14490;54.208;37.686;2022-08-18T03:24:31;16.58;;;3.53;;
26634;SDS011;14490;54.208;37.686;2022-08-18T03:26:59;8.80;;;2.60;;
26634;SDS011;14490;54.208;37.686;2022-08-18T03:29:31;7.40;;;3.20;;
26634;SDS011;14490;54.208;37.686;2022-08-18T03:32:00;13.50;;;4.03;;
26634;SDS011;14490;54.208;37.686;2022-08-18T03:34:28;10.10;;;2.85;;
26634;SDS011;14490;54.208;37.686;2022-08-18T03:36:58;10.63;;;2.45;;
26634;SDS011;14490;54.208;37.686;2022-08-18T03:39:26;17.55;;;4.07;;
26634;SDS011;14490;54.208;37.686;2022-08-18T03:41:54;11.63;;;3.63;;
26634;SDS011;14490;54.208;37.686;2022-08-18T03:44:23;11.13;;;3.53;;
26634;SDS011;14490;54.208;37.686;2022-08-18T03:46:52;8.73;;;3.00;;
26634;SDS011;14490;54.208;37.686;2022-08-18T03:49:19;13.85;;;3.97;;
26634;SDS011;14490;54.208;37.686;2022-08-18T03:54:20;13.40;;;3.20;;
26634;SDS011;14490;54.208;37.686;2022-08-18T03:56:48;10.32;;;2.90;;
26634;SDS011;14490;54.208;37.686;2022-08-18T03:59:18;12.20;;;3.35;;
26634;SDS011;14490;54.208;37.686;2022-08-18T04:01:49;9.10;;;3.47;;
26634;SDS011;14490;54.208;37.686;2022-08-18T04:04:20;7.47;;;3.13;;
26634;SDS011;14490;54.208;37.686;2022-08-18T04:06:51;14.15;;;3.00;;
26634;SDS011;14490;54.208;37.686;2022-08-18T04:09:23;9.47;;;3.27;;
26634;SDS011;14490;54.208;37.686;2022-08-18T04:11:53;11.35;;;3.95;;
26634;SDS011;14490;54.208;37.686;2022-08-18T04:14:22;10.95;;;3.05;;
26634;SDS011;14490;54.208;37.686;2022-08-18T04:16:54;11.07;;;3.47;;
26634;SDS011;14490;54.208;37.686;2022-08-18T04:19:23;13.25;;;2.80;;
26634;SDS011;14490;54.208;37.686;2022-08-18T04:21:51;11.45;;;3.30;;
26634;SDS011;14490;54.208;37.686;2022-08-18T04:24:19;8.90;;;3.00;;
26634;SDS011;14490;54.208;37.686;2022-08-18T04:26:48;10.27;;;2.80;;
26634;SDS011;14490;54.208;37.686;2022-08-18T04:29:18;9.55;;;3.20;;
26634;SDS011;14490;54.208;37.686;2022-08-18T04:31:46;14.82;;;3.67;;
26634;SDS011;14490;54.208;37.686;2022-08-18T04:34:16;6.25;;;3.58;;
26634;SDS011;14490;54.208;37.686;2022-08-18T04:36:46;6.38;;;2.97;;
26634;SDS011;14490;54.208;37.686;2022-08-18T04:39:18;9.13;;;3.00;;
26634;SDS011;14490;54.208;37.686;2022-08-18T04:41:48;18.75;;;3.17;;
26634;SDS011;14490;54.208;37.686;2022-08-18T04:44:16;9.18;;;3.60;;
26634;SDS011;14490;54.208;37.686;2022-08-18T04:46:46;9.77;;;2.65;;
26634;SDS011;14490;54.208;37.686;2022-08-18T04:49:16;6.43;;;3.00;;
26634;SDS011;14490;54.208;37.686;2022-08-18T04:51:46;9.50;;;3.38;;
26634;SDS011;14490;54.208;37.686;2022-08-18T04:54:36;10.35;;;2.88;;
26634;SDS011;14490;54.208;37.686;2022-08-18T04:57:10;9.73;;;3.83;;
26634;SDS011;14490;54.208;37.686;2022-08-18T04:59:41;10.82;;;3.47;;
26634;SDS011;14490;54.208;37.686;2022-08-18T05:02:12;6.35;;;3.03;;
26634;SDS011;14490;54.208;37.686;2022-08-18T05:04:42;4.32;;;3.03;;
26634;SDS011;14490;54.208;37.686;2022-08-18T05:07:11;6.93;;;3.33;;
26634;SDS011;14490;54.208;37.686;2022-08-18T05:09:42;3.80;;;2.70;;
26634;SDS011;14490;54.208;37.686;2022-08-18T05:12:11;13.32;;;4.25;;
26634;SDS011;14490;54.208;37.686;2022-08-18T05:14:40;10.32;;;3.17;;
26634;SDS011;14490;54.208;37.686;2022-08-18T05:17:10;6.57;;;2.90;;
26634;SDS011;14490;54.208;37.686;2022-08-18T05:19:39;8.50;;;3.35;;
26634;SDS011;14490;54.208;37.686;2022-08-18T05:22:08;8.82;;;3.50;;
26634;SDS011;14490;54.208;37.686;2022-08-18T05:24:38;23.48;;;4.68;;
26634;SDS011;14490;54.208;37.686;2022-08-18T05:27:05;13.27;;;3.47;;
26634;SDS011;14490;54.208;37.686;2022-08-18T05:29:35;24.52;;;3.95;;
26634;SDS011;14490;54.208;37.686;2022-08-18T05:32:03;11.15;;;3.67;;
26634;SDS011;14490;54.208;37.686;2022-08-18T05:34:32;8.85;;;3.35;;
26634;SDS011;14490;54.208;37.686;2022-08-18T05:37:03;8.70;;;3.50;;
26634;SDS011;14490;54.208;37.686;2022-08-18T05:39:45;8.25;;;3.17;;
26634;SDS011;14490;54.208;37.686;2022-08-18T05:42:22;9.25;;;3.50;;
26634;SDS011;14490;54.208;37.686;2022-08-18T05:45:04;5.13;;;3.17;;
26634;SDS011;14490;54.208;37.686;2022-08-18T05:47:42;6.70;;;3.53;;
26634;SDS011;14490;54.208;37.686;2022-08-18T05:50:11;10.45;;;3.10;;
26634;SDS011;14490;54.208;37.686;2022-08-18T05:52:43;5.03;;;3.53;;
26634;SDS011;14490;54.208;37.686;2022-08-18T05:55:20;6.47;;;3.58;;
26634;SDS011;14490;54.208;37.686;2022-08-18T06:00:43;7.72;;;3.60;;
26634;SDS011;14490;54.208;37.686;2022-08-18T06:03:19;7.30;;;3.40;;
26634;SDS011;14490;54.208;37.686;2022-08-18T06:05:52;12.35;;;3.88;;
26634;SDS011;14490;54.208;37.686;2022-08-18T06:08:27;6.30;;;4.30;;
26634;SDS011;14490;54.208;37.686;2022-08-18T06:11:02;7.82;;;4.50;;
26634;SDS011;14490;54.208;37.686;2022-08-18T06:13:30;5.65;;;4.47;;
26634;SDS011;14490;54.208;37.686;2022-08-18T06:16:07;9.30;;;3.75;;
26634;SDS011;14490;54.208;37.686;2022-08-18T06:18:42;5.50;;;3.47;;
26634;SDS011;14490;54.208;37.686;2022-08-18T06:21:22;5.65;;;3.90;;
26634;SDS011;14490;54.208;37.686;2022-08-18T06:24:08;11.13;;;3.53;;
26634;SDS011;14490;54.208;37.686;2022-08-18T06:26:46;5.40;;;3.35;;
26634;SDS011;14490;54.208;37.686;2022-08-18T06:29:25;3.50;;;3.15;;
26634;SDS011;14490;54.208;37.686;2022-08-18T06:32:14;5.75;;;3.70;;
26634;SDS011;14490;54.208;37.686;2022-08-18T06:34:56;5.35;;;3.45;;
26634;SDS011;14490;54.208;37.686;2022-08-18T06:37:38;7.72;;;3.55;;
26634;SDS011;14490;54.208;37.686;2022-08-18T06:40:31;6.00;;;3.47;;
26634;SDS011;14490;54.208;37.686;2022-08-18T06:43:00;9.20;;;3.22;;
26634;SDS011;14490;54.208;37.686;2022-08-18T06:45:30;4.95;;;3.35;;
26634;SDS011;14490;54.208;37.686;2022-08-18T06:48:05;3.55;;;2.80;;
26634;SDS011;14490;54.208;37.686;2022-08-18T06:50:40;3.97;;;2.67;;
26634;SDS011;14490;54.208;37.686;2022-08-18T06:53:16;3.25;;;2.60;;
26634;SDS011;14490;54.208;37.686;2022-08-18T06:55:44;3.50;;;2.45;;
26634;SDS011;14490;54.208;37.686;2022-08-18T06:58:20;9.07;;;3.13;;
26634;SDS011;14490;54.208;37.686;2022-08-18T07:00:55;5.18;;;2.65;;
26634;SDS011;14490;54.208;37.686;2022-08-18T07:03:41;7.10;;;3.13;;
26634;SDS011;14490;54.208;37.686;2022-08-18T07:06:22;7.32;;;2.40;;
26634;SDS011;14490;54.208;37.686;2022-08-18T07:08:55;5.47;;;2.63;;
26634;SDS011;14490;54.208;37.686;2022-08-18T07:11:58;6.97;;;3.03;;
26634;SDS011;14490;54.208;37.686;2022-08-18T07:14:30;6.82;;;2.08;;
26634;SDS011;14490;54.208;37.686;2022-08-18T07:17:09;4.85;;;2.38;;
26634;SDS011;14490;54.208;37.686;2022-08-18T07:19:40;5.05;;;2.67;;
26634;SDS011;14490;54.208;37.686;2022-08-18T07:22:09;5.43;;;3.45;;
26634;SDS011;14490;54.208;37.686;2022-08-18T07:24:41;5.80;;;2.90;;
26634;SDS011;14490;54.208;37.686;2022-08-18T07:27:12;8.07;;;2.60;;
26634;SDS011;14490;54.208;37.686;2022-08-18T07:29:57;5.53;;;2.45;;
26634;SDS011;14490;54.208;37.686;2022-08-18T07:32:29;4.50;;;2.90;;
26634;SDS011;14490;54.208;37.686;2022-08-18T07:35:04;7.28;;;3.03;;
26634;SDS011;14490;54.208;37.686;2022-08-18T07:37:35;6.13;;;2.42;;
26634;SDS011;14490;54.208;37.686;2022-08-18T07:40:18;3.47;;;2.33;;
26634;SDS011;14490;54.208;37.686;2022-08-18T07:42:55;6.40;;;2.22;;
26634;SDS011;14490;54.208;37.686;2022-08-18T07:45:29;2.47;;;2.28;;
26634;SDS011;14490;54.208;37.686;2022-08-18T07:48:03;4.95;;;2.28;;
26634;SDS011;14490;54.208;37.686;2022-08-18T07:50:41;7.35;;;2.67;;
26634;SDS011;14490;54.208;37.686;2022-08-18T07:53:25;3.60;;;2.60;;
26634;SDS011;14490;54.208;37.686;2022-08-18T07:56:11;7.75;;;2.40;;
26634;SDS011;14490;54.208;37.686;2022-08-18T07:58:55;5.03;;;2.97;;
26634;SDS011;14490;54.208;37.686;2022-08-18T08:01:31;5.43;;;2.30;;
26634;SDS011;14490;54.208;37.686;2022-08-18T08:04:10;4.75;;;2.67;;
26634;SDS011;14490;54.208;37.686;2022-08-18T08:06:47;7.63;;;2.50;;
26634;SDS011;14490;54.208;37.686;2022-08-18T08:09:22;4.88;;;3.13;;
26634;SDS011;14490;54.208;37.686;2022-08-18T08:11:57;9.45;;;3.00;;
26634;SDS011;14490;54.208;37.686;2022-08-18T08:14:32;6.45;;;3.22;;
26634;SDS011;14490;54.208;37.686;2022-08-18T08:17:10;10.35;;;3.25;;
26634;SDS011;14490;54.208;37.686;2022-08-18T08:19:59;6.38;;;3.42;;
26634;SDS011;14490;54.208;37.686;2022-08-18T08:22:41;6.38;;;3.25;;
26634;SDS011;14490;54.208;37.686;2022-08-18T08:25:21;4.45;;;3.78;;
26634;SDS011;14490;54.208;37.686;2022-08-18T08:27:59;6.22;;;3.67;;
26634;SDS011;14490;54.208;37.686;2022-08-18T08:30:39;8.38;;;4.28;;
26634;SDS011;14490;54.208;37.686;2022-08-18T08:33:16;9.52;;;4.38;;
26634;SDS011;14490;54.208;37.686;2022-08-18T08:35:51;10.82;;;4.93;;
26634;SDS011;14490;54.208;37.686;2022-08-18T08:38:32;6.93;;;4.55;;
26634;SDS011;14490;54.208;37.686;2022-08-18T08:41:10;8.82;;;4.85;;
26634;SDS011;14490;54.208;37.686;2022-08-18T08:43:44;10.48;;;5.50;;
26634;SDS011;14490;54.208;37.686;2022-08-18T08:46:19;11.13;;;4.63;;
26634;SDS011;14490;54.208;37.686;2022-08-18T08:48:55;9.18;;;5.85;;
26634;SDS011;14490;54.208;37.686;2022-08-18T08:51:32;10.85;;;5.47;;
26634;SDS011;14490;54.208;37.686;2022-08-18T08:54:07;8.98;;;6.00;;
26634;SDS011;14490;54.208;37.686;2022-08-18T08:56:44;18.70;;;6.78;;
26634;SDS011;14490;54.208;37.686;2022-08-18T08:59:15;8.43;;;6.28;;
26634;SDS011;14490;54.208;37.686;2022-08-18T09:01:47;11.30;;;6.40;;
26634;SDS011;14490;54.208;37.686;2022-08-18T09:04:29;6.95;;;5.60;;
26634;SDS011;14490;54.208;37.686;2022-08-18T09:07:12;6.80;;;6.15;;
26634;SDS011;14490;54.208;37.686;2022-08-18T09:16:42;10.85;;;7.05;;
26634;SDS011;14490;54.208;37.686;2022-08-18T09:19:37;9.27;;;7.30;;
26634;SDS011;14490;54.208;37.686;2022-08-18T09:22:28;15.57;;;7.20;;
26634;SDS011;14490;54.208;37.686;2022-08-18T09:25:11;13.45;;;8.15;;
26634;SDS011;14490;54.208;37.686;2022-08-18T09:28:09;8.70;;;7.60;;
26634;SDS011;14490;54.208;37.686;2022-08-18T09:30:45;17.77;;;7.70;;
26634;SDS011;14490;54.208;37.686;2022-08-18T09:33:46;11.00;;;7.18;;
26634;SDS011;14490;54.208;37.686;2022-08-18T09:36:59;15.05;;;9.77;;
26634;SDS011;14490;54.208;37.686;2022-08-18T09:39:35;14.90;;;9.25;;
26634;SDS011;14490;54.208;37.686;2022-08-18T09:42:39;17.88;;;10.30;;
26634;SDS011;14490;54.208;37.686;2022-08-18T09:48:25;14.50;;;11.30;;
26634;SDS011;14490;54.208;37.686;2022-08-18T09:50:57;21.08;;;13.65;;
26634;SDS011;14490;54.208;37.686;2022-08-18T09:54:06;22.25;;;13.05;;
26634;SDS011;14490;54.208;37.686;2022-08-18T09:59:50;25.77;;;16.42;;
26634;SDS011;14490;54.208;37.686;2022-08-18T10:05:54;24.40;;;15.88;;
26634;SDS011;14490;54.208;37.686;2022-08-18T10:09:03;21.55;;;13.85;;
26634;SDS011;14490;54.208;37.686;2022-08-18T10:14:50;20.05;;;13.50;;
26634;SDS011;14490;54.208;37.686;2022-08-18T10:20:38;25.90;;;15.77;;
26634;SDS011;14490;54.208;37.686;2022-08-18T10:29:43;30.65;;;19.45;;
26634;SDS011;14490;54.208;37.686;2022-08-18T10:32:21;32.65;;;23.00;;
26634;SDS011;14490;54.208;37.686;2022-08-18T10:41:22;31.90;;;24.60;;
26634;SDS011;14490;54.208;37.686;2022-08-18T10:43:54;41.17;;;25.38;;
26634;SDS011;14490;54.208;37.686;2022-08-18T10:46:24;39.80;;;27.20;;
26634;SDS011;14490;54.208;37.686;2022-08-18T10:48:59;44.85;;;26.63;;
26634;SDS011;14490;54.208;37.686;2022-08-18T10:51:43;42.50;;;27.52;;
26634;SDS011;14490;54.208;37.686;2022-08-18T10:54:47;41.35;;;28.48;;
26634;SDS011;14490;54.208;37.686;2022-08-18T10:57:58;42.60;;;29.90;;
26634;SDS011;14490;54.208;37.686;2022-08-18T11:00:45;45.50;;;29.80;;
26634;SDS011;14490;54.208;37.686;2022-08-18T11:03:31;47.92;;;32.65;;
26634;SDS011;14490;54.208;37.686;2022-08-18T11:06:15;47.22;;;31.45;;
26634;SDS011;14490;54.208;37.686;2022-08-18T11:08:50;45.63;;;32.03;;
26634;SDS011;14490;54.208;37.686;2022-08-18T11:11:22;48.60;;;34.03;;
26634;SDS011;14490;54.208;37.686;2022-08-18T11:13:56;49.97;;;32.53;;
26634;SDS011;14490;54.208;37.686;2022-08-18T11:16:43;48.88;;;33.63;;
26634;SDS011;14490;54.208;37.686;2022-08-18T11:19:20;50.03;;;34.00;;
26634;SDS011;14490;54.208;37.686;2022-08-18T11:21:49;54.30;;;33.45;;
26634;SDS011;14490;54.208;37.686;2022-08-18T11:24:21;48.22;;;32.70;;
26634;SDS011;14490;54.208;37.686;2022-08-18T11:26:52;52.92;;;32.92;;
26634;SDS011;14490;54.208;37.686;2022-08-18T11:29:27;41.90;;;32.05;;
26634;SDS011;14490;54.208;37.686;2022-08-18T11:32:00;42.78;;;31.55;;
26634;SDS011;14490;54.208;37.686;2022-08-18T11:34:37;45.38;;;30.10;;
26634;SDS011;14490;54.208;37.686;2022-08-18T11:37:18;43.38;;;28.98;;
26634;SDS011;14490;54.208;37.686;2022-08-18T11:39:53;36.65;;;27.55;;
26634;SDS011;14490;54.208;37.686;2022-08-18T11:42:27;42.15;;;26.70;;
26634;SDS011;14490;54.208;37.686;2022-08-18T11:45:05;40.75;;;25.30;;
26634;SDS011;14490;54.208;37.686;2022-08-18T11:50:43;36.22;;;25.35;;
26634;SDS011;14490;54.208;37.686;2022-08-18T11:53:20;35.63;;;26.30;;
26634;SDS011;14490;54.208;37.686;2022-08-18T11:56:10;38.60;;;26.42;;
26634;SDS011;14490;54.208;37.686;2022-08-18T11:58:49;39.53;;;28.38;;
26634;SDS011;14490;54.208;37.686;2022-08-18T12:01:37;40.03;;;29.33;;
26634;SDS011;14490;54.208;37.686;2022-08-18T12:04:21;43.47;;;32.40;;
26634;SDS011;14490;54.208;37.686;2022-08-18T12:06:59;44.00;;;30.35;;
26634;SDS011;14490;54.208;37.686;2022-08-18T12:09:37;45.00;;;31.60;;
26634;SDS011;14490;54.208;37.686;2022-08-18T12:12:15;43.33;;;32.38;;
26634;SDS011;14490;54.208;37.686;2022-08-18T12:14:52;44.65;;;32.92;;
26634;SDS011;14490;54.208;37.686;2022-08-18T12:17:23;53.58;;;36.70;;
26634;SDS011;14490;54.208;37.686;2022-08-18T12:19:52;48.58;;;35.35;;
26634;SDS011;14490;54.208;37.686;2022-08-18T12:22:22;49.75;;;36.75;;
26634;SDS011;14490;54.208;37.686;2022-08-18T12:24:52;58.57;;;39.13;;
26634;SDS011;14490;54.208;37.686;2022-08-18T12:27:22;56.13;;;39.85;;
26634;SDS011;14490;54.208;37.686;2022-08-18T12:29:55;65.35;;;44.58;;
26634;SDS011;14490;54.208;37.686;2022-08-18T12:32:25;63.30;;;45.30;;
26634;SDS011;14490;54.208;37.686;2022-08-18T12:34:56;62.72;;;43.25;;
26634;SDS011;14490;54.208;37.686;2022-08-18T12:37:25;70.20;;;46.83;;
26634;SDS011;14490;54.208;37.686;2022-08-18T12:39:55;62.78;;;43.58;;
26634;SDS011;14490;54.208;37.686;2022-08-18T12:42:26;64.20;;;47.05;;
26634;SDS011;14490;54.208;37.686;2022-08-18T12:44:53;70.00;;;48.83;;
26634;SDS011;14490;54.208;37.686;2022-08-18T12:47:21;76.90;;;50.55;;
26634;SDS011;14490;54.208;37.686;2022-08-18T12:49:51;70.28;;;49.33;;
26634;SDS011;14490;54.208;37.686;2022-08-18T12:52:19;68.45;;;49.13;;
26634;SDS011;14490;54.208;37.686;2022-08-18T12:54:47;73.38;;;49.33;;
26634;SDS011;14490;54.208;37.686;2022-08-18T12:57:16;70.63;;;49.70;;
26634;SDS011;14490;54.208;37.686;2022-08-18T12:59:49;74.00;;;49.97;;
26634;SDS011;14490;54.208;37.686;2022-08-18T13:04:46;75.32;;;46.97;;
26634;SDS011;14490;54.208;37.686;2022-08-18T13:07:14;74.75;;;47.58;;
26634;SDS011;14490;54.208;37.686;2022-08-18T13:09:42;62.60;;;43.97;;
26634;SDS011;14490;54.208;37.686;2022-08-18T13:12:12;62.67;;;44.67;;
26634;SDS011;14490;54.208;37.686;2022-08-18T13:14:55;67.78;;;45.40;;
26634;SDS011;14490;54.208;37.686;2022-08-18T13:17:23;64.05;;;43.72;;
26634;SDS011;14490;54.208;37.686;2022-08-18T13:19:50;59.85;;;41.40;;
26634;SDS011;14490;54.208;37.686;2022-08-18T13:22:18;64.75;;;41.22;;
26634;SDS011;14490;54.208;37.686;2022-08-18T13:24:45;68.60;;;40.45;;
26634;SDS011;14490;54.208;37.686;2022-08-18T13:27:13;61.90;;;39.33;;
26634;SDS011;14490;54.208;37.686;2022-08-18T13:29:41;58.90;;;38.03;;
26634;SDS011;14490;54.208;37.686;2022-08-18T13:32:10;53.05;;;35.95;;
26634;SDS011;14490;54.208;37.686;2022-08-18T13:34:38;52.30;;;36.75;;
26634;SDS011;14490;54.208;37.686;2022-08-18T13:37:06;56.38;;;35.00;;
26634;SDS011;14490;54.208;37.686;2022-08-18T13:39:34;49.10;;;33.47;;
26634;SDS011;14490;54.208;37.686;2022-08-18T13:42:02;53.17;;;33.92;;
26634;SDS011;14490;54.208;37.686;2022-08-18T13:44:30;45.33;;;30.98;;
26634;SDS011;14490;54.208;37.686;2022-08-18T13:46:58;45.25;;;29.25;;
26634;SDS011;14490;54.208;37.686;2022-08-18T13:49:27;34.63;;;26.73;;
26634;SDS011;14490;54.208;37.686;2022-08-18T13:51:55;40.58;;;24.63;;
26634;SDS011;14490;54.208;37.686;2022-08-18T13:54:24;30.27;;;23.05;;
26634;SDS011;14490;54.208;37.686;2022-08-18T13:56:55;31.55;;;21.58;;
26634;SDS011;14490;54.208;37.686;2022-08-18T13:59:22;27.33;;;19.27;;
26634;SDS011;14490;54.208;37.686;2022-08-18T14:01:51;24.80;;;19.20;;
26634;SDS011;14490;54.208;37.686;2022-08-18T14:04:19;28.48;;;18.08;;
26634;SDS011;14490;54.208;37.686;2022-08-18T14:06:49;29.27;;;19.35;;
26634;SDS011;14490;54.208;37.686;2022-08-18T14:09:17;24.90;;;17.27;;
26634;SDS011;14490;54.208;37.686;2022-08-18T14:11:44;21.50;;;15.13;;
26634;SDS011;14490;54.208;37.686;2022-08-18T14:14:13;20.73;;;13.48;;
26634;SDS011;14490;54.208;37.686;2022-08-18T14:16:41;16.35;;;12.80;;
26634;SDS011;14490;54.208;37.686;2022-08-18T14:19:09;18.70;;;13.43;;
26634;SDS011;14490;54.208;37.686;2022-08-18T14:21:55;17.55;;;11.25;;
26634;SDS011;14490;54.208;37.686;2022-08-18T14:24:41;17.40;;;10.57;;
26634;SDS011;14490;54.208;37.686;2022-08-18T14:27:28;15.30;;;11.15;;
26634;SDS011;14490;54.208;37.686;2022-08-18T14:29:58;12.00;;;9.63;;
26634;SDS011;14490;54.208;37.686;2022-08-18T14:32:27;21.13;;;9.65;;
26634;SDS011;14490;54.208;37.686;2022-08-18T14:34:56;16.42;;;8.85;;
26634;SDS011;14490;54.208;37.686;2022-08-18T14:37:26;13.00;;;8.35;;
26634;SDS011;14490;54.208;37.686;2022-08-18T14:39:55;9.60;;;8.05;;
26634;SDS011;14490;54.208;37.686;2022-08-18T14:42:23;12.43;;;8.07;;
26634;SDS011;14490;54.208;37.686;2022-08-18T14:44:51;12.07;;;7.15;;
26634;SDS011;14490;54.208;37.686;2022-08-18T14:47:20;11.15;;;6.70;;
26634;SDS011;14490;54.208;37.686;2022-08-18T14:49:47;7.97;;;6.03;;
26634;SDS011;14490;54.208;37.686;2022-08-18T14:52:15;9.48;;;5.90;;
26634;SDS011;14490;54.208;37.686;2022-08-18T14:54:44;9.65;;;5.25;;
26634;SDS011;14490;54.208;37.686;2022-08-18T14:57:12;7.07;;;5.03;;
26634;SDS011;14490;54.208;37.686;2022-08-18T14:59:40;9.07;;;4.63;;
26634;SDS011;14490;54.208;37.686;2022-08-18T15:02:09;7.60;;;4.30;;
26634;SDS011;14490;54.208;37.686;2022-08-18T15:04:37;8.05;;;4.57;;
26634;SDS011;14490;54.208;37.686;2022-08-18T15:07:05;8.35;;;4.57;;
26634;SDS011;14490;54.208;37.686;2022-08-18T15:09:33;5.90;;;4.18;;
26634;SDS011;14490;54.208;37.686;2022-08-18T15:12:02;6.50;;;3.80;;
26634;SDS011;14490;54.208;37.686;2022-08-18T15:14:31;4.22;;;3.53;;
26634;SDS011;14490;54.208;37.686;2022-08-18T15:17:00;7.07;;;3.15;;
26634;SDS011;14490;54.208;37.686;2022-08-18T15:19:30;6.38;;;3.10;;
26634;SDS011;14490;54.208;37.686;2022-08-18T15:21:58;7.72;;;3.17;;
26634;SDS011;14490;54.208;37.686;2022-08-18T15:24:43;8.18;;;2.97;;
26634;SDS011;14490;54.208;37.686;2022-08-18T15:27:35;7.80;;;3.33;;
26634;SDS011;14490;54.208;37.686;2022-08-18T15:30:05;7.28;;;3.10;;
26634;SDS011;14490;54.208;37.686;2022-08-18T15:32:42;4.10;;;3.00;;
26634;SDS011;14490;54.208;37.686;2022-08-18T15:35:10;10.75;;;2.75;;
26634;SDS011;14490;54.208;37.686;2022-08-18T15:37:39;3.58;;;2.97;;
26634;SDS011;14490;54.208;37.686;2022-08-18T15:40:09;5.35;;;2.75;;
26634;SDS011;14490;54.208;37.686;2022-08-18T15:42:43;9.45;;;3.13;;
26634;SDS011;14490;54.208;37.686;2022-08-18T15:45:14;3.60;;;3.15;;
26634;SDS011;14490;54.208;37.686;2022-08-18T15:47:42;7.50;;;3.00;;